Terminal Aerodrome Forecast
Issued by NWS

Home | Current Version | Previous Version | Graphics & Text | Print | Product List | Glossary On
Versions: 1 2 3 4 5 6 7 8 9 10 11 12 13 14 15 16 17 18 19 20 21 22 23 24 25 26 27 28 29 30 31 32
544
FTUS43 KABR 231202 AAA
TAFMBG
TAF AMD
KMBG 231202Z 2312/2412 16020G30KT P6SM VCTS BKN050CB BKN250
      TEMPO 2312/2313 -TSRA
     FM231500 33011KT P6SM OVC060
     FM231800 31013G23KT P6SM BKN250
     FM240200 32008KT P6SM SKC=

USA.gov is the U.S. government's official web portal to all federal, state and local government web resources and services.